Time;durP1;ratioP1;P1;durP2;ratioP2;P2;SDS_P1;SDS_P2;PMS_P1;PMS_P2;Temp;Humidity;BMP_temperature;BMP_pressure;BME280_temperature;BME280_humidity;BME280_pressure;Samples;Min_cycle;Max_cycle;Signal;HPM_P1;HPM_P2
2023/10/11 00:01:47;;;;;;;0.00;0.00;;;16.60;99.90;;;;;;4975189;28;20042;-51
2023/10/11 00:04:26;;;;;;;0.00;0.00;;;16.60;99.90;;;;;;4972966;28;20201;-51
2023/10/11 00:06:54;;;;;;;0.00;0.00;;;16.60;99.90;;;;;;4975972;28;20183;-53
2023/10/11 00:09:34;;;;;;;0.00;0.00;;;16.60;99.90;;;;;;4974793;28;20058;-50
2023/10/11 00:12:07;;;;;;;0.00;0.00;;;16.60;99.90;;;;;;4975556;28;20540;-52
2023/10/11 00:14:33;;;;;;;0.00;0.00;;;16.70;99.90;;;;;;4982784;28;20494;-50
2023/10/11 00:16:58;;;;;;;0.00;0.00;;;16.70;99.90;;;;;;4975664;28;20031;-50
2023/10/11 00:19:28;;;;;;;0.00;0.00;;;16.70;99.90;;;;;;4974787;28;20037;-52
2023/10/11 00:21:55;;;;;;;0.00;0.00;;;16.80;99.90;;;;;;4975504;28;20039;-53
2023/10/11 00:24:23;;;;;;;0.00;0.00;;;16.70;99.90;;;;;;4979524;28;20614;-50
2023/10/11 00:26:50;;;;;;;0.00;0.00;;;16.70;99.90;;;;;;4981216;28;20065;-52
2023/10/11 00:29:16;;;;;;;0.00;0.00;;;16.70;99.90;;;;;;4974262;28;20038;-54
2023/10/11 00:31:41;;;;;;;0.00;0.00;;;16.70;99.90;;;;;;4975445;28;20030;-50
2023/10/11 00:34:10;;;;;;;0.00;0.00;;;16.70;99.90;;;;;;4974047;28;20508;-53
2023/10/11 00:36:36;;;;;;;0.00;0.00;;;16.70;99.90;;;;;;4975087;28;20398;-54
2023/10/11 00:39:05;;;;;;;0.00;0.00;;;16.70;99.90;;;;;;4973408;28;20046;-54
2023/10/11 00:41:31;;;;;;;0.00;0.00;;;16.70;99.90;;;;;;4974565;28;20414;-54
2023/10/11 00:43:57;;;;;;;0.00;0.00;;;16.80;99.90;;;;;;4974883;28;20038;-52
2023/10/11 00:49:16;;;;;;;0.00;0.00;;;16.80;99.90;;;;;;4956472;28;20039;-53
2023/10/11 00:51:46;;;;;;;0.00;0.00;;;16.80;99.90;;;;;;4974051;28;20034;-54
2023/10/11 00:54:15;;;;;;;0.00;0.00;;;16.80;99.90;;;;;;4973695;28;20110;-54
2023/10/11 00:56:48;;;;;;;0.00;0.00;;;16.80;99.90;;;;;;4974214;28;20482;-55
2023/10/11 00:59:20;;;;;;;0.00;0.00;;;16.80;99.90;;;;;;4974197;28;20869;-54
2023/10/11 01:01:46;;;;;;;0.00;0.00;;;16.80;99.90;;;;;;4974459;28;20030;-55
2023/10/11 01:04:13;;;;;;;0.00;0.00;;;16.80;99.90;;;;;;4973526;28;20039;-55
2023/10/11 01:06:39;;;;;;;0.00;0.00;;;16.80;99.90;;;;;;4973826;28;20112;-55
2023/10/11 01:09:18;;;;;;;0.00;0.00;;;16.70;99.90;;;;;;4973438;28;20042;-53
2023/10/11 01:11:45;;;;;;;0.00;0.00;;;16.70;99.90;;;;;;4958996;28;20711;-55
2023/10/11 01:14:11;;;;;;;0.00;0.00;;;16.80;99.90;;;;;;4973264;28;20108;-55
2023/10/11 01:16:37;;;;;;;0.00;0.00;;;16.80;99.90;;;;;;4974110;28;20333;-55
2023/10/11 01:19:10;;;;;;;0.00;0.00;;;16.90;99.90;;;;;;4973095;28;20290;-56
2023/10/11 01:21:37;;;;;;;;;;;16.80;99.90;;;;;;4975369;28;20061;-57
2023/10/11 01:24:02;;;;;;;0.00;0.00;;;16.90;99.90;;;;;;4973401;28;19918;-54
2023/10/11 01:26:30;;;;;;;0.00;0.00;;;16.80;99.90;;;;;;4974090;28;20117;-55
2023/10/11 01:28:56;;;;;;;0.00;0.00;;;16.90;99.90;;;;;;4971498;28;20048;-54
2023/10/11 01:31:23;;;;;;;0.00;0.00;;;16.80;99.90;;;;;;4970181;28;20411;-53
2023/10/11 01:33:49;;;;;;;0.00;0.00;;;16.70;99.90;;;;;;4974241;28;20042;-55
2023/10/11 01:36:15;;;;;;;0.00;0.00;;;16.70;99.90;;;;;;4972905;28;20096;-53
2023/10/11 01:38:49;;;;;;;0.00;0.00;;;16.80;99.90;;;;;;4973125;28;20080;-52
2023/10/11 01:41:15;;;;;;;;;;;16.80;99.90;;;;;;4973081;28;20759;-51
2023/10/11 01:43:40;;;;;;;0.00;0.00;;;16.80;99.90;;;;;;4973778;28;20488;-50
2023/10/11 01:46:06;;;;;;;0.00;0.00;;;16.80;99.90;;;;;;4971494;28;20038;-55
2023/10/11 01:48:32;;;;;;;0.00;0.00;;;16.90;99.90;;;;;;4974272;28;20041;-55
2023/10/11 01:51:03;;;;;;;0.00;0.00;;;16.90;99.90;;;;;;4973311;28;20401;-55
2023/10/11 01:53:29;;;;;;;0.00;0.00;;;16.90;99.90;;;;;;4973041;28;20042;-54
2023/10/11 01:55:55;;;;;;;0.00;0.00;;;16.90;99.90;;;;;;4973711;28;20034;-55
2023/10/11 01:58:20;;;;;;;0.00;0.00;;;16.90;99.90;;;;;;4972801;28;20112;-55
2023/10/11 02:00:48;;;;;;;0.00;0.00;;;16.90;99.90;;;;;;4973385;28;20038;-53
2023/10/11 02:03:14;;;;;;;0.00;0.00;;;16.90;99.90;;;;;;4972749;28;20326;-54
2023/10/11 02:05:40;;;;;;;0.00;0.00;;;17.00;99.90;;;;;;4974257;28;20516;-52
2023/10/11 02:08:06;;;;;;;0.00;0.00;;;17.00;99.90;;;;;;4972978;28;20053;-54
2023/10/11 02:10:36;;;;;;;0.00;0.00;;;16.90;99.90;;;;;;4974093;28;20045;-53
2023/10/11 02:13:04;;;;;;;0.00;0.00;;;17.00;99.90;;;;;;4972459;28;20632;-56
2023/10/11 02:15:30;;;;;;;0.00;0.00;;;16.90;99.90;;;;;;4973549;28;20208;-53
2023/10/11 02:17:58;;;;;;;0.00;0.00;;;16.90;99.90;;;;;;4973405;28;20061;-54
2023/10/11 02:20:24;;;;;;;0.00;0.00;;;17.00;99.90;;;;;;4972034;28;20136;-54
2023/10/11 02:22:55;;;;;;;0.00;0.00;;;17.00;99.90;;;;;;4976205;28;20046;-53
2023/10/11 02:25:24;;;;;;;0.00;0.00;;;17.00;99.90;;;;;;4973267;28;20045;-53
2023/10/11 02:27:51;;;;;;;0.00;0.00;;;17.00;99.90;;;;;;4973849;28;20611;-54
2023/10/11 02:30:21;;;;;;;0.00;0.00;;;16.90;99.90;;;;;;4971960;28;20122;-55
2023/10/11 02:32:59;;;;;;;0.00;0.00;;;16.90;99.90;;;;;;4973230;28;20042;-53
2023/10/11 02:35:29;;;;;;;0.00;0.00;;;16.90;99.90;;;;;;4972024;28;20041;-55
2023/10/11 02:37:59;;;;;;;0.00;0.00;;;16.90;99.90;;;;;;4973061;28;20466;-54
2023/10/11 02:40:24;;;;;;;0.00;0.00;;;16.90;99.90;;;;;;4972347;28;20494;-55
2023/10/11 02:42:55;;;;;;;0.00;0.00;;;16.80;99.90;;;;;;4972880;28;20049;-54
2023/10/11 02:45:24;;;;;;;0.00;0.00;;;16.80;99.90;;;;;;4974657;28;21327;-56
2023/10/11 02:47:59;;;;;;;0.00;0.00;;;16.80;99.90;;;;;;4978121;28;20145;-56
2023/10/11 02:50:25;;;;;;;0.00;0.00;;;16.80;99.90;;;;;;4973926;28;20586;-58
2023/10/11 02:52:59;;;;;;;0.00;0.00;;;16.80;99.90;;;;;;4976788;28;20352;-54
2023/10/11 02:55:24;;;;;;;0.00;0.00;;;16.80;99.90;;;;;;4975978;28;20035;-55
2023/10/11 02:58:06;;;;;;;0.00;0.00;;;16.70;99.90;;;;;;4976593;28;20382;-51
2023/10/11 03:00:33;;;;;;;0.00;0.00;;;16.70;99.90;;;;;;4995698;28;20250;-51
2023/10/11 03:02:59;;;;;;;0.00;0.00;;;16.70;99.90;;;;;;4996226;28;20041;-53
2023/10/11 03:05:28;;;;;;;0.00;0.00;;;16.70;99.90;;;;;;4995509;28;20037;-55
2023/10/11 03:08:17;;;;;;;0.00;0.00;;;16.70;99.90;;;;;;4995775;28;20044;-53
2023/10/11 03:10:44;;;;;;;0.00;0.00;;;16.70;99.90;;;;;;4974716;28;20030;-52
2023/10/11 03:13:24;;;;;;;0.00;0.00;;;16.70;99.90;;;;;;4975625;28;20115;-51
2023/10/11 03:15:56;;;;;;;0.00;0.00;;;16.70;99.90;;;;;;4962946;28;20084;-54
2023/10/11 03:18:25;;;;;;;0.00;0.00;;;16.70;99.90;;;;;;4974889;28;20550;-53
2023/10/11 03:21:06;;;;;;;0.00;0.00;;;16.60;99.90;;;;;;4984728;28;20066;-51
2023/10/11 03:23:36;;;;;;;0.00;0.00;;;16.60;99.90;;;;;;4982985;28;20438;-53
2023/10/11 03:26:16;;;;;;;0.00;0.00;;;16.70;99.90;;;;;;4975176;28;20030;-54
2023/10/11 03:28:42;;;;;;;0.00;0.00;;;16.60;99.90;;;;;;4975719;28;20106;-53
2023/10/11 03:31:08;;;;;;;0.00;0.00;;;16.50;99.90;;;;;;4983425;28;20048;-50
2023/10/11 03:33:36;;;;;;;0.00;0.00;;;16.50;99.90;;;;;;4976325;28;20046;-51
2023/10/11 03:36:05;;;;;;;0.00;0.00;;;16.50;99.90;;;;;;4975491;28;20270;-52
2023/10/11 03:38:33;;;;;;;0.00;0.00;;;16.50;99.90;;;;;;4976203;28;20187;-52
2023/10/11 03:41:14;;;;;;;0.00;0.00;;;16.40;99.90;;;;;;4990233;28;20470;-55
2023/10/11 03:43:41;;;;;;;0.00;0.00;;;16.40;99.90;;;;;;4962606;28;20078;-52
2023/10/11 03:46:09;;;;;;;0.00;0.00;;;16.40;99.90;;;;;;4984345;28;20103;-52
2023/10/11 03:48:44;;;;;;;0.00;0.00;;;16.30;99.90;;;;;;4991031;28;20129;-52
2023/10/11 03:51:19;;;;;;;0.00;0.00;;;16.30;99.90;;;;;;4974339;28;20402;-53
2023/10/11 03:53:47;;;;;;;0.00;0.00;;;16.30;99.90;;;;;;4975570;28;20038;-49
2023/10/11 03:56:13;;;;;;;0.00;0.00;;;16.40;99.90;;;;;;4975105;28;20031;-54
2023/10/11 03:58:39;;;;;;;0.00;0.00;;;16.40;99.90;;;;;;4975677;28;20577;-53
2023/10/11 04:01:23;;;;;;;0.00;0.00;;;16.30;99.90;;;;;;4974255;28;20026;-54
2023/10/11 04:03:49;;;;;;;0.00;0.00;;;16.20;99.90;;;;;;4969135;28;20386;-54
2023/10/11 04:06:15;;;;;;;0.00;0.00;;;16.10;99.90;;;;;;4975426;28;20029;-52
2023/10/11 04:09:02;;;;;;;0.00;0.00;;;16.10;99.90;;;;;;4975924;28;20309;-53
2023/10/11 04:11:37;;;;;;;0.00;0.00;;;16.10;99.90;;;;;;4975193;28;20159;-53
2023/10/11 04:14:03;;;;;;;0.00;0.00;;;16.00;99.90;;;;;;4974455;28;20415;-52
2023/10/11 04:16:29;;;;;;;0.00;0.00;;;15.90;99.90;;;;;;4975424;28;20561;-53
2023/10/11 04:18:55;;;;;;;0.00;0.00;;;15.90;99.90;;;;;;4975240;28;20035;-53
2023/10/11 04:23:54;;;;;;;0.00;0.00;;;15.80;99.90;;;;;;4975524;28;20791;-52
2023/10/11 04:28:54;;;;;;;0.00;0.00;;;15.70;99.90;;;;;;4975544;28;20031;-53
2023/10/11 04:31:31;;;;;;;0.00;0.00;;;15.70;99.90;;;;;;4973683;28;20027;-49
2023/10/11 04:33:59;;;;;;;0.00;0.00;;;15.60;99.90;;;;;;4975329;28;20290;-50
2023/10/11 04:36:25;;;;;;;0.00;0.00;;;15.60;99.90;;;;;;4973391;28;20030;-50
2023/10/11 04:38:52;;;;;;;0.00;0.00;;;15.60;99.90;;;;;;4975392;28;20619;-52
2023/10/11 04:41:20;;;;;;;0.00;0.00;;;15.60;99.90;;;;;;4974335;28;20041;-52
2023/10/11 04:44:04;;;;;;;0.00;0.00;;;15.70;99.90;;;;;;4974802;28;20132;-52
2023/10/11 04:46:30;;;;;;;0.00;0.00;;;15.70;99.90;;;;;;4993417;28;20646;-53
2023/10/11 04:49:17;;;;;;;0.00;0.00;;;15.60;99.90;;;;;;4986446;28;20034;-53
2023/10/11 04:51:45;;;;;;;0.00;0.00;;;15.60;99.90;;;;;;4964587;28;20116;-53
2023/10/11 04:54:13;;;;;;;0.00;0.00;;;15.60;99.90;;;;;;4973338;28;20030;-52
2023/10/11 04:59:36;;;;;;;0.00;0.00;;;15.60;99.90;;;;;;4972573;28;20085;-52
2023/10/11 05:02:16;;;;;;;0.00;0.00;;;15.60;99.90;;;;;;4969071;28;20053;-52
2023/10/11 05:04:44;;;;;;;0.00;0.00;;;15.60;99.90;;;;;;4974211;28;20069;-52
2023/10/11 05:07:10;;;;;;;0.00;0.00;;;15.60;99.90;;;;;;4973880;28;20046;-52
2023/10/11 05:09:39;;;;;;;0.00;0.00;;;15.80;99.90;;;;;;4974242;28;20418;-50
2023/10/11 05:12:19;;;;;;;0.00;0.00;;;15.60;99.90;;;;;;4973063;28;20038;-52
2023/10/11 05:27:56;;;;;;;0.00;0.00;;;15.40;99.90;;;;;;4973968;28;20649;-54
2023/10/11 05:52:15;;;;;;;0.00;0.00;;;15.10;99.90;;;;;;4972211;28;20045;-55
2023/10/11 05:54:41;;;;;;;0.00;0.00;;;15.10;99.90;;;;;;4965729;28;20097;-51
2023/10/11 05:57:07;;;;;;;0.00;0.00;;;15.20;99.90;;;;;;4972944;28;20034;-54
2023/10/11 05:59:37;;;;;;;0.00;0.00;;;15.10;99.90;;;;;;4973497;28;20038;-54
2023/10/11 06:02:18;;;;;;;0.00;0.00;;;15.20;99.90;;;;;;4972561;28;20366;-55
2023/10/11 06:04:45;;;;;;;0.00;0.00;;;15.10;99.90;;;;;;4971565;28;20034;-53
2023/10/11 06:07:13;;;;;;;0.00;0.00;;;15.10;99.90;;;;;;4973112;28;20038;-56
2023/10/11 06:09:43;;;;;;;0.00;0.00;;;15.20;99.90;;;;;;4975804;28;20493;-55
2023/10/11 06:12:26;;;;;;;0.00;0.00;;;15.30;99.90;;;;;;4974600;28;20406;-54
2023/10/11 06:14:56;;;;;;;0.00;0.00;;;15.40;99.90;;;;;;4973535;28;20038;-55
2023/10/11 06:20:23;;;;;;;0.00;0.00;;;15.60;99.90;;;;;;4972246;28;20138;-55
2023/10/11 06:22:49;;;;;;;0.00;0.00;;;15.70;99.90;;;;;;4973423;28;20022;-55
2023/10/11 06:25:22;;;;;;;0.00;0.00;;;15.70;99.90;;;;;;4974149;28;20132;-51
2023/10/11 06:30:24;;;;;;;0.00;0.00;;;15.60;99.90;;;;;;4980470;28;20463;-52
2023/10/11 06:32:50;;;;;;;0.00;0.00;;;15.70;99.90;;;;;;4982233;28;20054;-50
2023/10/11 06:35:23;;;;;;;0.00;0.00;;;15.70;99.90;;;;;;4976609;28;20755;-56
2023/10/11 06:37:54;;;;;;;0.00;0.00;;;15.70;99.90;;;;;;4977092;28;20030;-54
2023/10/11 06:43:12;;;;;;;0.00;0.00;;;15.70;99.90;;;;;;4976311;28;20215;-54
2023/10/11 06:45:40;;;;;;;0.00;0.00;;;15.80;99.90;;;;;;4977298;28;20044;-49
2023/10/11 06:48:07;;;;;;;0.00;0.00;;;15.80;99.90;;;;;;4975695;28;20034;-53
2023/10/11 06:50:37;;;;;;;0.00;0.00;;;15.90;99.90;;;;;;4975171;28;20315;-53
2023/10/11 06:53:07;;;;;;;0.00;0.00;;;15.90;99.90;;;;;;4976062;28;20285;-53
2023/10/11 06:55:39;;;;;;;0.00;0.00;;;15.90;99.90;;;;;;4974721;28;20046;-52
2023/10/11 06:58:15;;;;;;;0.00;0.00;;;16.00;99.90;;;;;;4975801;28;20525;-53
2023/10/11 07:00:45;;;;;;;0.00;0.00;;;16.10;99.90;;;;;;4967566;28;20690;-51
2023/10/11 07:05:56;;;;;;;0.00;0.00;;;16.10;99.90;;;;;;4976826;28;20061;-52
2023/10/11 07:08:31;;;;;;;0.00;0.00;;;16.20;99.90;;;;;;4975677;28;20042;-51
2023/10/11 07:11:16;;;;;;;0.00;0.00;;;16.30;99.90;;;;;;4976017;28;20069;-52
2023/10/11 07:14:00;;;;;;;0.00;0.00;;;16.30;99.90;;;;;;4961003;28;20128;-54
2023/10/11 07:16:28;;;;;;;0.00;0.00;;;16.40;99.90;;;;;;4975284;28;20041;-51
2023/10/11 07:18:56;;;;;;;0.00;0.00;;;16.40;99.90;;;;;;4976667;28;20038;-52
2023/10/11 07:21:27;;;;;;;0.00;0.00;;;16.50;99.90;;;;;;4974991;28;20030;-55
2023/10/11 07:26:23;;;;;;;0.00;0.00;;;16.60;99.90;;;;;;4975570;28;20038;-53
2023/10/11 07:28:51;;;;;;;0.00;0.00;;;16.70;99.90;;;;;;4976158;28;20273;-51
2023/10/11 07:31:17;;;;;;;0.00;0.00;;;16.70;99.90;;;;;;4974871;28;20521;-49
2023/10/11 07:33:49;;;;;;;0.00;0.00;;;16.80;99.90;;;;;;4975911;28;20045;-50
2023/10/11 07:36:19;;;;;;;0.00;0.00;;;16.90;99.90;;;;;;4974231;28;20118;-53
2023/10/11 07:39:00;;;;;;;0.00;0.00;;;17.00;99.90;;;;;;4974460;28;20426;-52
2023/10/11 07:41:29;;;;;;;0.00;0.00;;;17.10;99.90;;;;;;4974455;28;20389;-53
2023/10/11 07:43:56;;;;;;;0.00;0.00;;;17.10;99.90;;;;;;4976034;28;20042;-52
2023/10/11 07:46:23;;;;;;;0.00;0.00;;;17.20;99.90;;;;;;4975036;28;20125;-55
2023/10/11 07:49:01;;;;;;;0.00;0.00;;;17.20;99.90;;;;;;4976443;28;20633;-54
2023/10/11 07:51:28;;;;;;;0.00;0.00;;;17.30;99.90;;;;;;4974644;28;20722;-55
2023/10/11 07:53:54;;;;;;;0.00;0.00;;;17.30;99.90;;;;;;4975745;28;20030;-51
2023/10/11 07:56:20;;;;;;;0.00;0.00;;;17.40;99.90;;;;;;4975087;28;20044;-53
2023/10/11 07:58:47;;;;;;;0.00;0.00;;;17.50;99.90;;;;;;4976159;28;20095;-54
2023/10/11 08:01:30;;;;;;;0.00;0.00;;;17.50;99.90;;;;;;4975158;28;20088;-51
2023/10/11 08:03:57;;;;;;;0.00;0.00;;;17.60;99.90;;;;;;4975335;28;20034;-51
2023/10/11 08:06:25;;;;;;;0.00;0.00;;;17.70;99.90;;;;;;4973500;28;20129;-56
2023/10/11 08:08:58;;;;;;;0.00;0.00;;;17.70;99.90;;;;;;4976478;28;20060;-51
2023/10/11 08:11:27;;;;;;;;;;;17.70;99.90;;;;;;4975108;28;20437;-54
2023/10/11 08:14:00;;;;;;;0.00;0.00;;;17.80;99.90;;;;;;4975720;28;19914;-53
2023/10/11 08:16:26;;;;;;;0.00;0.00;;;17.90;99.90;;;;;;4974098;28;20046;-55
2023/10/11 08:18:52;;;;;;;0.00;0.00;;;18.00;99.90;;;;;;4975002;28;20026;-55
2023/10/11 08:21:18;;;;;;;0.00;0.00;;;18.00;99.90;;;;;;4974322;28;20063;-56
2023/10/11 08:23:44;;;;;;;0.00;0.00;;;18.00;99.90;;;;;;4975582;28;20780;-55
2023/10/11 08:26:14;;;;;;;0.00;0.00;;;18.10;99.90;;;;;;4973956;28;20042;-55
2023/10/11 08:28:49;;;;;;;0.00;0.00;;;18.10;99.90;;;;;;4975191;28;20085;-54
2023/10/11 08:34:14;;;;;;;0.00;0.00;;;18.30;99.90;;;;;;4965103;28;20046;-55
2023/10/11 08:36:42;;;;;;;0.00;0.00;;;18.30;99.90;;;;;;4974947;28;20046;-54
2023/10/11 08:39:08;;;;;;;0.00;0.00;;;18.40;99.90;;;;;;4974108;28;20045;-55
2023/10/11 08:41:34;;;;;;;0.00;0.00;;;18.40;99.90;;;;;;4975034;28;20050;-55
2023/10/11 08:44:15;;;;;;;0.00;0.00;;;18.40;99.90;;;;;;4974608;28;20049;-56
2023/10/11 08:46:45;;;;;;;0.00;0.00;;;18.50;99.90;;;;;;4989048;28;20033;-54
2023/10/11 08:49:12;;;;;;;0.00;0.00;;;18.50;99.90;;;;;;4992666;28;20343;-56
2023/10/11 08:51:41;;;;;;;0.00;0.00;;;18.50;99.90;;;;;;4994210;28;20136;-56
2023/10/11 08:54:11;;;;;;;0.00;0.00;;;18.60;99.90;;;;;;4993313;28;20127;-55
2023/10/11 08:56:52;;;;;;;0.00;0.00;;;18.60;99.90;;;;;;4994300;28;20058;-56
2023/10/11 08:59:25;;;;;;;0.00;0.00;;;18.60;99.90;;;;;;4993339;28;20229;-55
2023/10/11 09:01:52;;;;;;;0.00;0.00;;;18.70;99.90;;;;;;4993925;28;20034;-56
2023/10/11 09:04:18;;;;;;;0.00;0.00;;;18.70;99.90;;;;;;4993100;28;20038;-57
2023/10/11 09:06:45;;;;;;;0.00;0.00;;;18.80;99.90;;;;;;4994130;28;20646;-54
2023/10/11 09:09:32;;;;;;;0.00;0.00;;;18.80;99.90;;;;;;4993079;28;20085;-57
2023/10/11 09:11:58;;;;;;;0.00;0.00;;;18.90;99.90;;;;;;4990078;28;20171;-54
2023/10/11 09:14:24;;;;;;;0.00;0.00;;;18.90;99.90;;;;;;4992938;28;20078;-56
2023/10/11 09:16:57;;;;;;;0.00;0.00;;;19.00;99.90;;;;;;4994247;28;20034;-51
2023/10/11 09:19:23;;;;;;;0.00;0.00;;;19.00;99.90;;;;;;4993180;28;20054;-54
2023/10/11 09:22:03;;;;;;;0.00;0.00;;;19.10;99.90;;;;;;4992990;28;20147;-52
2023/10/11 09:24:29;;;;;;;0.00;0.00;;;19.10;99.90;;;;;;4981380;28;20497;-52
2023/10/11 09:29:46;;;;;;;0.00;0.00;;;19.20;99.90;;;;;;4962267;28;20038;-54
2023/10/11 09:32:19;;;;;;;0.00;0.00;;;19.30;99.90;;;;;;4972696;28;20100;-54
2023/10/11 09:34:46;;;;;;;0.00;0.00;;;19.30;99.90;;;;;;4974290;28;20057;-56
2023/10/11 09:37:12;;;;;;;0.00;0.00;;;19.30;99.90;;;;;;4972741;28;20152;-57
2023/10/11 09:39:42;;;;;;;0.00;0.00;;;19.40;99.90;;;;;;4973962;28;20038;-54
2023/10/11 09:42:10;;;;;;;0.00;0.00;;;;;;;;;;4968723;28;20085;-57
2023/10/11 09:44:40;;;;;;;0.00;0.00;;;;;;;;;;4973505;28;20429;-57
2023/10/11 09:47:16;;;;;;;0.00;0.00;;;;;;;;;;4990474;28;20064;-55
2023/10/11 09:49:42;;;;;;;0.00;0.00;;;;;;;;;;4979764;28;20570;-55
2023/10/11 09:52:10;;;;;;;0.00;0.00;;;;;;;;;;4972614;28;20096;-56
2023/10/11 09:54:38;;;;;;;0.00;0.00;;;;;;;;;;4973667;28;20030;-54
2023/10/11 09:57:04;;;;;;;0.00;0.00;;;;;;;;;;4973274;28;20085;-56
2023/10/11 09:59:46;;;;;;;0.00;0.00;;;;;;;;;;4973412;28;20362;-55
2023/10/11 10:02:19;;;;;;;0.00;0.00;;;;;;;;;;4973009;28;20090;-56
2023/10/11 10:04:51;;;;;;;0.00;0.00;;;;;;;;;;4979144;28;20050;-56
2023/10/11 10:10:06;;;;;;;0.00;0.00;;;;;;;;;;4973212;28;20515;-57
2023/10/11 10:12:40;;;;;;;0.00;0.00;;;;;;;;;;4973635;28;20049;-56
2023/10/11 10:15:32;;;;;;;0.00;0.00;;;;;;;;;;4972435;28;20035;-58
2023/10/11 10:18:01;;;;;;;0.00;0.00;;;;;;;;;;4972022;28;20030;-57
2023/10/11 10:20:41;;;;;;;0.00;0.00;;;;;;;;;;4972821;28;20030;-55
2023/10/11 10:23:16;;;;;;;0.00;0.00;;;;;;;;;;4972330;28;20039;-53
2023/10/11 10:25:46;;;;;;;0.00;0.00;;;;;;;;;;4957505;28;20423;-56
2023/10/11 10:28:32;;;;;;;0.00;0.00;;;;;;;;;;4972395;28;20281;-56
2023/10/11 10:31:27;;;;;;;0.00;0.00;;;;;;;;;;4986244;28;20571;-56
2023/10/11 10:34:05;;;;;;;0.00;0.00;;;;;;;;;;4979697;28;20046;-56
2023/10/11 10:36:31;;;;;;;0.00;0.00;;;;;;;;;;4986687;28;20239;-55
2023/10/11 10:39:00;;;;;;;0.00;0.00;;;;;;;;;;4973354;28;20038;-54
2023/10/11 10:41:31;;;;;;;0.00;0.00;;;;;;;;;;4980447;28;20201;-53
2023/10/11 10:44:04;;;;;;;0.00;0.00;;;;;;;;;;4973200;28;20039;-54
2023/10/11 10:46:30;;;;;;;;;;;;;;;;;;4972056;28;20051;-55
2023/10/11 10:48:56;;;;;;;0.00;0.00;;;;;;;;;;4973108;28;20379;-52
2023/10/11 10:51:25;;;;;;;0.00;0.00;;;;;;;;;;4971952;28;20042;-53
2023/10/11 10:53:53;;;;;;;0.00;0.00;;;;;;;;;;4973649;28;20030;-55
2023/10/11 10:56:24;;;;;;;0.00;0.00;;;;;;;;;;4972051;28;20069;-52
2023/10/11 10:59:03;;;;;;;0.00;0.00;;;;;;;;;;4973554;28;20727;-54
2023/10/11 11:01:29;;;;;;;0.00;0.00;;;;;;;;;;4979945;28;20042;-50
2023/10/11 11:03:58;;;;;;;0.00;0.00;;;;;;;;;;4972985;28;20248;-54
2023/10/11 11:06:25;;;;;;;0.00;0.00;;;;;;;;;;4972131;28;20799;-52
2023/10/11 11:08:53;;;;;;;0.00;0.00;;;;;;;;;;4972575;28;20429;-54
2023/10/11 11:11:26;;;;;;;0.00;0.00;;;;;;;;;;4973150;28;20039;-54
2023/10/11 11:13:56;;;;;;;0.00;0.00;;;;;;;;;;4976047;28;20045;-52
2023/10/11 11:16:29;;;;;;;0.00;0.00;;;;;;;;;;4974165;28;20053;-54
2023/10/11 11:19:00;;;;;;;;;;;;;;;;;;4976799;28;20031;-55
2023/10/11 11:21:29;;;;;;;0.00;0.00;;;;;;;;;;4974932;28;19924;-55
2023/10/11 11:23:55;;;;;;;0.00;0.00;;;;;;;;;;4976463;28;20199;-56
2023/10/11 11:26:23;;;;;;;0.00;0.00;;;;;;;;;;4975019;28;20767;-52
2023/10/11 11:29:08;;;;;;;0.00;0.00;;;;;;;;;;4974615;28;20045;-55
2023/10/11 11:31:51;;;;;;;0.00;0.00;;;;;;;;;;4996745;28;20310;-54
2023/10/11 11:34:26;;;;;;;;;;;;;;;;;;4974759;28;20092;-55
2023/10/11 11:36:56;;;;;;;0.00;0.00;;;;;;;;;;4975749;28;20012;-54
2023/10/11 11:39:36;;;;;;;0.00;0.00;;;;;;;;;;4975076;28;20122;-54
2023/10/11 11:42:24;;;;;;;0.00;0.00;;;;;;;;;;4974367;28;20216;-54
2023/10/11 11:44:51;;;;;;;0.00;0.00;;;;;;;;;;4975707;28;20100;-53
2023/10/11 11:47:22;;;;;;;0.00;0.00;;;;;;;;;;4991594;28;20037;-53
2023/10/11 11:49:48;;;;;;;0.00;0.00;;;;;;;;;;4975977;28;20307;-55
2023/10/11 11:52:17;;;;;;;0.00;0.00;;;;;;;;;;4974373;28;20673;-53
2023/10/11 11:54:44;;;;;;;0.00;0.00;;;;;;;;;;4975533;28;20046;-54
2023/10/11 11:57:10;;;;;;;0.00;0.00;;;;;;;;;;4974745;28;20582;-54
2023/10/11 11:59:38;;;;;;;0.00;0.00;;;;;;;;;;4975743;28;20041;-54
2023/10/11 12:02:09;;;;;;;0.00;0.00;;;;;;;;;;4974866;28;20041;-52
2023/10/11 12:04:36;;;;;;;0.00;0.00;;;;;;;;;;4973811;28;20740;-53
2023/10/11 12:07:05;;;;;;;0.00;0.00;;;;;;;;;;4974578;28;20257;-56
2023/10/11 12:09:32;;;;;;;0.00;0.00;;;;;;;;;;4965266;28;20554;-52
2023/10/11 12:12:05;;;;;;;0.00;0.00;;;;;;;;;;4975505;28;20145;-54
2023/10/11 12:14:31;;;;;;;0.00;0.00;;;;;;;;;;4974839;28;20714;-55
2023/10/11 12:16:58;;;;;;;0.00;0.00;;;;;;;;;;4974961;28;20510;-52
2023/10/11 12:19:25;;;;;;;0.00;0.00;;;;;;;;;;4974270;28;20672;-55
2023/10/11 12:21:57;;;;;;;0.00;0.00;;;;;;;;;;4975033;28;20671;-55
2023/10/11 12:24:23;;;;;;;0.00;0.00;;;;;;;;;;4974511;28;20132;-55
2023/10/11 12:26:49;;;;;;;0.00;0.00;;;;;;;;;;4974881;28;20026;-54
2023/10/11 12:29:18;;;;;;;0.00;0.00;;;;;;;;;;4973149;28;20514;-54
2023/10/11 12:31:44;;;;;;;0.00;0.00;;;;;;;;;;4968060;28;20042;-52
2023/10/11 12:34:11;;;;;;;0.00;0.00;;;;;;;;;;4973750;28;20034;-52
2023/10/11 12:36:39;;;;;;;0.00;0.00;;;;;;;;;;4974104;28;20045;-54
2023/10/11 12:39:06;;;;;;;0.00;0.00;;;;;;;;;;4971800;28;20042;-56
2023/10/11 12:41:32;;;;;;;0.00;0.00;;;;;;;;;;4973110;28;20038;-54
2023/10/11 12:44:00;;;;;;;0.00;0.00;;;;;;;;;;4973102;28;20073;-54
2023/10/11 12:46:27;;;;;;;0.00;0.00;;;;;;;;;;4972487;28;20238;-52
2023/10/11 12:48:56;;;;;;;0.00;0.00;;;;;;;;;;4973065;28;20050;-55
2023/10/11 12:51:25;;;;;;;0.00;0.00;;;;;;;;;;4972093;28;20423;-55
2023/10/11 12:53:54;;;;;;;0.00;0.00;;;;;;;;;;4972833;28;20093;-54
2023/10/11 12:56:21;;;;;;;0.00;0.00;;;;;;;;;;4972336;28;20034;-51
2023/10/11 12:58:50;;;;;;;0.00;0.00;;;;;;;;;;4972987;28;20043;-53
2023/10/11 13:01:25;;;;;;;0.00;0.00;;;;;;;;;;4969710;28;20126;-55
2023/10/11 13:04:05;;;;;;;0.00;0.00;;;;;;;;;;4971242;28;20085;-53
2023/10/11 13:06:31;;;;;;;0.00;0.00;;;;;;;;;;4979676;28;20069;-54
2023/10/11 13:08:59;;;;;;;0.00;0.00;;;;;;;;;;4972900;28;20521;-56
2023/10/11 13:11:25;;;;;;;0.00;0.00;;;;;;;;;;4970632;28;20425;-55
2023/10/11 13:13:51;;;;;;;0.00;0.00;;;;;;;;;;4972766;28;20137;-54
2023/10/11 13:16:26;;;;;;;0.00;0.00;;;;;;;;;;4971826;28;20113;-53
2023/10/11 13:18:52;;;;;;;0.00;0.00;;;;;;;;;;4972752;28;20334;-55
2023/10/11 13:21:25;;;;;;;0.00;0.00;;;;;;;;;;4971639;28;20848;-54
2023/10/11 13:23:51;;;;;;;0.00;0.00;;;;;;;;;;4972365;28;20034;-53
2023/10/11 13:26:18;;;;;;;0.00;0.00;;;;;;;;;;4972506;28;20583;-57
2023/10/11 13:28:48;;;;;;;0.00;0.00;;;;;;;;;;4974016;28;20045;-57
2023/10/11 13:31:17;;;;;;;0.00;0.00;;;;;;;;;;4978353;28;20044;-56
2023/10/11 13:33:43;;;;;;;0.00;0.00;;;;;;;;;;4972556;28;20046;-54
2023/10/11 13:36:12;;;;;;;0.00;0.00;;;;;;;;;;4971417;28;20132;-55
2023/10/11 13:38:41;;;;;;;0.00;0.00;;;;;;;;;;4971533;28;20414;-55
2023/10/11 13:41:12;;;;;;;0.00;0.00;;;;;;;;;;4971891;28;20656;-54
2023/10/11 13:43:38;;;;;;;0.00;0.00;;;;;;;;;;4973213;28;20135;-53
2023/10/11 13:46:10;;;;;;;0.00;0.00;;;;;;;;;;4972438;28;20034;-58
2023/10/11 13:48:43;;;;;;;0.00;0.00;;;;;;;;;;4973339;28;20604;-57
2023/10/11 13:51:18;;;;;;;;;;;;;;;;;;4972913;28;20156;-55
2023/10/11 13:53:44;;;;;;;0.00;0.00;;;;;;;;;;4973342;28;19918;-58
2023/10/11 13:56:20;;;;;;;0.00;0.00;;;;;;;;;;4972464;28;20027;-56
2023/10/11 13:58:46;;;;;;;0.00;0.00;;;;;;;;;;4973724;28;20370;-56
2023/10/11 14:01:36;;;;;;;0.00;0.00;;;;;;;;;;4973093;28;20042;-56
2023/10/11 14:04:08;;;;;;;0.00;0.00;;;;;;;;;;4969723;28;20369;-55
2023/10/11 14:06:46;;;;;;;0.00;0.00;;;;;;;;;;4979891;28;20042;-55
2023/10/11 14:09:18;;;;;;;0.00;0.00;;;;;;;;;;4972596;28;20382;-56
2023/10/11 14:11:46;;;;;;;0.00;0.00;;;;;;;;;;4958082;28;20204;-56
2023/10/11 14:14:13;;;;;;;0.00;0.00;;;;;;;;;;4971918;28;20042;-57
2023/10/11 14:16:41;;;;;;;0.00;0.00;;;;;;;;;;4973293;28;20065;-56
2023/10/11 14:19:08;;;;;;;0.00;0.00;;;;;;;;;;4979103;28;20030;-56
2023/10/11 14:21:39;;;;;;;0.00;0.00;;;;;;;;;;4971498;28;20690;-57
2023/10/11 14:24:06;;;;;;;0.00;0.00;;;;;;;;;;4972144;28;20214;-57
2023/10/11 14:26:33;;;;;;;0.00;0.00;;;;;;;;;;4973030;28;20126;-57
2023/10/11 14:28:59;;;;;;;0.00;0.00;;;;;;;;;;4972940;28;20194;-57
2023/10/11 14:31:25;;;;;;;0.00;0.00;;;;;;;;;;4996200;28;20034;-58
2023/10/11 14:33:52;;;;;;;0.00;0.00;;;;;;;;;;4972738;28;20046;-56
2023/10/11 14:36:23;;;;;;;0.00;0.00;;;;;;;;;;4971743;28;20050;-58
2023/10/11 14:38:51;;;;;;;0.00;0.00;;;;;;;;;;4981230;28;20050;-57
2023/10/11 14:41:21;;;;;;;0.00;0.00;;;;;;;;;;4970319;28;20643;-64
2023/10/11 14:43:47;;;;;;;0.00;0.00;;;;;;;;;;4973081;28;20045;-57
2023/10/11 14:46:13;;;;;;;0.00;0.00;;;;;;;;;;4982302;28;20037;-55
2023/10/11 14:48:39;;;;;;;0.00;0.00;;;;;;;;;;4974683;28;20278;-54
2023/10/11 14:51:06;;;;;;;0.00;0.00;;;;;;;;;;4976084;28;20039;-58
2023/10/11 14:53:33;;;;;;;0.00;0.00;;;;;;;;;;4976457;28;20112;-56